TimeAKDT,TemperatureF,Dew PointF,Humidity,Sea Level PressureIn,VisibilityMPH,Wind Direction,Wind SpeedMPH,Gust SpeedMPH,PrecipitationIn,Events,Conditions,WindDirDegrees,DateUTC
12:06 AM,44.6,41.0,87,29.87,10.0,Calm,Calm,-,N/A,,Mostly Cloudy,0,2013-06-05 08:06:00
12:53 AM,42.1,39.0,89,29.88,10.0,NNW,5.8,-,N/A,,Clear,340,2013-06-05 08:53:00
1:53 AM,39.0,37.0,93,29.89,10.0,North,4.6,-,N/A,,Mostly Cloudy,360,2013-06-05 09:53:00
2:53 AM,37.9,37.0,97,29.90,10.0,Calm,Calm,-,N/A,,Clear,0,2013-06-05 10:53:00
3:53 AM,36.0,35.1,97,29.91,10.0,North,3.5,-,N/A,,Clear,10,2013-06-05 11:53:00
4:53 AM,36.0,34.0,93,29.91,10.0,North,3.5,-,N/A,,Clear,350,2013-06-05 12:53:00
5:53 AM,36.0,34.0,93,29.92,10.0,Calm,Calm,-,N/A,,Clear,0,2013-06-05 13:53:00
6:53 AM,41.0,37.9,89,29.93,10.0,North,3.5,-,N/A,,Clear,360,2013-06-05 14:53:00
7:53 AM,46.0,39.0,76,29.93,10.0,NNW,4.6,-,N/A,,Clear,340,2013-06-05 15:53:00
8:53 AM,46.0,39.0,76,29.95,10.0,SSW,4.6,-,N/A,,Overcast,210,2013-06-05 16:53:00
9:53 AM,46.9,39.9,77,29.96,10.0,South,5.8,-,N/A,,Overcast,190,2013-06-05 17:53:00
10:53 AM,50.0,39.9,68,29.97,10.0,South,6.9,-,N/A,,Mostly Cloudy,190,2013-06-05 18:53:00
11:53 AM,53.1,41.0,64,29.97,10.0,SSE,9.2,-,N/A,,Clear,160,2013-06-05 19:53:00
12:53 PM,55.0,42.1,62,29.99,10.0,SSE,10.4,17.3,N/A,,Mostly Cloudy,160,2013-06-05 20:53:00
1:53 PM,53.1,42.1,66,29.99,10.0,South,9.2,16.1,N/A,,Partly Cloudy,180,2013-06-05 21:53:00
2:53 PM,54.0,43.0,66,30.00,10.0,South,10.4,19.6,N/A,,Partly Cloudy,170,2013-06-05 22:53:00
3:53 PM,53.1,41.0,64,30.00,10.0,SSE,10.4,17.3,N/A,,Clear,160,2013-06-05 23:53:00
4:53 PM,53.1,42.1,66,30.00,10.0,SSE,12.7,17.3,N/A,,Mostly Cloudy,160,2013-06-06 00:53:00
5:53 PM,53.1,41.0,64,30.00,10.0,SSE,9.2,17.3,N/A,,Mostly Cloudy,160,2013-06-06 01:53:00
6:53 PM,53.1,41.0,64,29.99,10.0,SSE,11.5,-,N/A,,Scattered Clouds,160,2013-06-06 02:53:00
7:53 PM,52.0,42.1,69,29.99,10.0,SSE,8.1,-,N/A,,Overcast,160,2013-06-06 03:53:00
8:53 PM,52.0,41.0,66,29.98,10.0,SE,6.9,-,N/A,,Overcast,140,2013-06-06 04:53:00
9:53 PM,50.0,42.1,74,29.98,10.0,Calm,Calm,-,N/A,,Mostly Cloudy,0,2013-06-06 05:53:00
10:53 PM,50.0,41.0,71,29.99,10.0,Calm,Calm,-,N/A,,Mostly Cloudy,0,2013-06-06 06:53:00
11:53 PM,46.9,41.0,80,29.98,10.0,Calm,Calm,-,N/A,,Overcast,0,2013-06-06 07:53:00